Time;durP1;ratioP1;P1;durP2;ratioP2;P2;SDS_P1;SDS_P2;PMS_P1;PMS_P2;Temp;Humidity;BMP_temperature;BMP_pressure;BME280_temperature;BME280_humidity;BME280_pressure;Samples;Min_cycle;Max_cycle;Signal;HPM_P1;HPM_P2
2022/09/23 00:01:08;;;;;;;12.15;6.78;;;11.90;77.20;;;;;;4911627;29;20500;-90
2022/09/23 00:03:37;;;;;;;11.00;7.28;;;11.80;77.20;;;;;;4927709;29;20099;-90
2022/09/23 00:06:11;;;;;;;13.20;7.10;;;11.80;77.50;;;;;;4924147;29;20029;-89
2022/09/23 00:08:37;;;;;;;;;;;11.80;77.70;;;;;;4909520;29;20048;-90
2022/09/23 00:11:15;;;;;;;13.60;7.32;;;11.70;77.80;;;;;;4923735;29;19927;-89
2022/09/23 00:13:44;;;;;;;10.65;7.13;;;11.70;77.80;;;;;;4906262;28;20395;-89
2022/09/23 00:16:13;;;;;;;12.88;7.50;;;11.70;77.70;;;;;;4903796;29;20052;-89
2022/09/23 00:18:40;;;;;;;13.20;7.35;;;11.70;77.60;;;;;;4917653;28;20051;-88
2022/09/23 00:21:09;;;;;;;11.27;7.05;;;11.60;77.60;;;;;;4906675;29;20449;-89
2022/09/23 00:23:35;;;;;;;11.65;7.32;;;11.60;77.80;;;;;;4904539;29;20580;-89
2022/09/23 00:26:04;;;;;;;9.82;7.05;;;11.60;78.00;;;;;;4907591;29;20033;-88
2022/09/23 00:28:30;;;;;;;10.63;7.18;;;11.60;78.20;;;;;;4906796;29;20035;-89
2022/09/23 00:30:56;;;;;;;10.63;7.03;;;11.60;78.30;;;;;;4908164;29;20036;-90
2022/09/23 00:33:22;;;;;;;13.38;6.85;;;11.60;78.30;;;;;;4910671;29;20540;-89
2022/09/23 00:35:48;;;;;;;12.23;7.68;;;11.60;78.20;;;;;;4909971;29;20141;-89
2022/09/23 00:38:14;;;;;;;9.88;6.85;;;11.60;78.20;;;;;;4910260;29;20036;-89
2022/09/23 00:40:44;;;;;;;11.93;7.03;;;11.60;78.30;;;;;;4923846;28;20044;-89
2022/09/23 00:43:12;;;;;;;12.07;6.95;;;11.60;78.30;;;;;;4922213;29;20032;-89
2022/09/23 00:45:39;;;;;;;13.25;7.38;;;11.50;78.10;;;;;;4908508;29;20044;-90
2022/09/23 00:48:12;;;;;;;13.27;7.60;;;11.60;78.00;;;;;;4912435;29;20036;-89
2022/09/23 00:50:42;;;;;;;10.25;6.95;;;11.60;77.90;;;;;;4909868;29;20037;-89
2022/09/23 00:53:13;;;;;;;12.15;7.15;;;11.60;77.90;;;;;;4908359;29;20071;-89
2022/09/23 00:55:47;;;;;;;12.23;6.40;;;11.50;78.00;;;;;;4928225;28;20055;-89
2022/09/23 00:58:17;;;;;;;11.60;6.65;;;11.50;78.00;;;;;;4904482;29;20115;-89
2022/09/23 01:00:45;;;;;;;10.02;6.70;;;11.50;78.00;;;;;;4905768;29;20036;-88
2022/09/23 01:03:11;;;;;;;15.90;7.20;;;11.40;78.00;;;;;;4907742;29;20035;-90
2022/09/23 01:05:38;;;;;;;10.82;7.00;;;11.40;78.00;;;;;;4909383;29;20080;-89
2022/09/23 01:08:07;;;;;;;13.68;7.78;;;11.40;78.10;;;;;;4918993;29;20413;-89
2022/09/23 01:10:50;;;;;;;11.75;7.00;;;11.40;78.20;;;;;;4911783;29;20044;-89
2022/09/23 01:13:51;;;;;;;11.88;7.22;;;11.40;78.30;;;;;;4917431;29;20052;-90
2022/09/23 01:16:33;;;;;;;9.70;6.60;;;11.40;78.20;;;;;;4925138;29;20440;-89
2022/09/23 01:19:11;;;;;;;10.27;6.10;;;11.30;78.20;;;;;;4913365;29;20054;-89
2022/09/23 01:21:42;;;;;;;10.50;7.05;;;11.30;78.20;;;;;;4928043;29;20720;-89
2022/09/23 01:24:20;;;;;;;10.90;6.20;;;11.20;78.30;;;;;;4913614;29;20028;-88
2022/09/23 01:27:15;;;;;;;12.05;6.63;;;11.20;78.30;;;;;;4907012;29;20036;-89
2022/09/23 01:29:59;;;;;;;10.97;6.43;;;11.20;78.40;;;;;;4904852;29;20068;-90
2022/09/23 01:32:31;;;;;;;10.52;7.25;;;11.20;78.20;;;;;;4916359;29;20397;-89
2022/09/23 01:35:15;;;;;;;10.27;6.68;;;11.10;78.10;;;;;;4910035;29;20039;-90
2022/09/23 01:37:41;;;;;;;10.43;7.00;;;11.20;78.30;;;;;;4931828;29;20033;-90
2022/09/23 01:40:58;;;;;;;11.32;6.32;;;11.10;78.30;;;;;;4911613;29;20378;-89
2022/09/23 01:43:40;;;;;;;10.50;6.80;;;11.10;78.30;;;;;;4875203;29;20040;-89
2022/09/23 01:46:16;;;;;;;12.90;6.72;;;11.10;78.40;;;;;;4903740;29;20040;-90
2022/09/23 01:49:09;;;;;;;10.30;6.82;;;11.10;78.50;;;;;;4909362;29;22553;-90
2022/09/23 01:51:40;;;;;;;10.95;7.30;;;11.10;78.60;;;;;;4896474;29;20135;-90
2022/09/23 01:54:26;;;;;;;12.90;7.18;;;11.10;78.70;;;;;;4918817;29;20303;-89
2022/09/23 01:57:20;;;;;;;10.70;7.47;;;11.10;78.80;;;;;;4922283;29;20028;-89
2022/09/23 01:59:53;;;;;;;9.95;6.78;;;11.10;78.80;;;;;;4916305;29;20033;-89
2022/09/23 02:02:34;;;;;;;14.93;7.65;;;11.10;78.90;;;;;;4914617;29;20032;-88
2022/09/23 02:05:23;;;;;;;11.07;6.60;;;11.10;79.00;;;;;;4923360;29;20119;-89
2022/09/23 02:07:58;;;;;;;9.35;7.10;;;11.00;79.00;;;;;;4915958;29;20048;-89
2022/09/23 02:10:40;;;;;;;11.07;7.65;;;11.00;79.20;;;;;;4904885;29;20071;-89
2022/09/23 02:13:21;;;;;;;11.20;7.10;;;11.00;79.40;;;;;;4908121;29;20047;-89
2022/09/23 02:15:51;;;;;;;10.10;6.30;;;11.00;79.10;;;;;;4906538;29;20051;-89
2022/09/23 02:18:42;;;;;;;12.20;7.88;;;11.00;79.10;;;;;;4913428;29;20024;-88
2022/09/23 02:21:08;;;;;;;11.43;6.57;;;11.00;79.20;;;;;;4920829;29;20044;-89
2022/09/23 02:23:51;;;;;;;9.77;6.85;;;11.00;79.40;;;;;;4927866;28;20102;-88
2022/09/23 02:26:25;;;;;;;10.93;7.28;;;11.00;79.40;;;;;;4906087;29;20028;-89
2022/09/23 02:29:04;;;;;;;10.57;6.97;;;11.00;79.40;;;;;;4908159;29;20658;-89
2022/09/23 02:31:44;;;;;;;11.52;6.72;;;11.00;79.30;;;;;;4924458;29;20072;-89
2022/09/23 02:34:34;;;;;;;11.48;6.53;;;10.90;79.30;;;;;;4923209;29;20035;-89
2022/09/23 02:37:07;;;;;;;9.52;6.60;;;10.80;79.40;;;;;;4910492;29;20059;-90
2022/09/23 02:40:09;;;;;;;10.23;6.68;;;10.80;79.20;;;;;;4919349;29;20043;-90
2022/09/23 02:43:20;;;;;;;12.60;7.03;;;10.80;79.20;;;;;;4916252;29;20124;-89
2022/09/23 02:45:46;;;;;;;12.52;6.88;;;10.80;79.40;;;;;;4868136;29;20036;-89
2022/09/23 02:48:40;;;;;;;10.75;6.90;;;10.80;79.60;;;;;;4926989;29;20032;-89
2022/09/23 02:51:06;;;;;;;10.40;6.25;;;10.80;79.80;;;;;;4910826;29;20454;-90
2022/09/23 02:53:33;;;;;;;11.20;6.50;;;10.80;79.90;;;;;;4912857;29;20041;-89
2022/09/23 02:56:13;;;;;;;9.70;6.32;;;10.80;79.90;;;;;;4913337;29;20520;-90
2022/09/23 02:58:39;;;;;;;10.85;6.35;;;10.80;80.10;;;;;;4924200;28;20067;-89
2022/09/23 03:01:14;;;;;;;10.18;6.22;;;10.80;80.20;;;;;;4922190;29;20169;-89
2022/09/23 03:04:08;;;;;;;9.93;6.70;;;10.80;80.20;;;;;;4923279;29;20040;-89
2022/09/23 03:06:57;;;;;;;9.60;6.37;;;10.80;80.10;;;;;;4912480;29;20039;-89
2022/09/23 03:09:38;;;;;;;9.90;5.82;;;10.80;80.10;;;;;;4907365;29;20423;-90
2022/09/23 03:12:20;;;;;;;12.27;5.97;;;10.90;80.00;;;;;;4907157;29;20040;-89
2022/09/23 03:14:58;;;;;;;11.98;6.40;;;10.90;80.00;;;;;;4917456;29;20057;-89
2022/09/23 03:18:03;;;;;;;11.55;7.57;;;10.80;80.00;;;;;;4925523;29;20044;-90
2022/09/23 03:20:41;;;;;;;12.35;7.82;;;10.80;80.20;;;;;;4891525;29;20096;-90
2022/09/23 03:23:09;;;;;;;12.63;6.60;;;10.80;80.30;;;;;;4907462;29;20032;-89
2022/09/23 03:25:39;;;;;;;8.75;5.72;;;10.80;80.30;;;;;;4909480;29;20036;-89
2022/09/23 03:28:07;;;;;;;11.93;6.22;;;10.90;80.30;;;;;;4908460;29;20120;-89
2022/09/23 03:30:36;;;;;;;10.70;6.25;;;10.90;80.20;;;;;;4910002;29;20043;-90
2022/09/23 03:33:10;;;;;;;12.00;6.65;;;10.90;80.30;;;;;;4905155;29;20120;-89
2022/09/23 03:38:36;;;;;;;11.13;6.13;;;10.90;80.30;;;;;;4911753;29;20104;-89
2022/09/23 03:41:04;;;;;;;9.93;6.32;;;10.90;80.30;;;;;;4910455;29;20381;-88
2022/09/23 03:43:31;;;;;;;11.02;6.65;;;10.90;80.30;;;;;;4930128;29;20092;-89
2022/09/23 03:45:58;;;;;;;10.35;6.10;;;11.00;80.40;;;;;;4911546;29;20042;-89
2022/09/23 03:48:24;;;;;;;11.63;7.65;;;11.00;80.50;;;;;;4920132;29;20040;-88
2022/09/23 03:50:50;;;;;;;11.45;6.55;;;11.10;80.50;;;;;;4912515;29;20318;-88
2022/09/23 03:53:17;;;;;;;13.88;6.45;;;11.00;80.30;;;;;;4903921;29;20037;-88
2022/09/23 03:55:45;;;;;;;10.88;5.90;;;11.10;80.20;;;;;;4914106;29;20127;-88
2022/09/23 03:58:11;;;;;;;11.25;7.00;;;11.00;80.10;;;;;;4907421;29;20040;-88
2022/09/23 04:00:37;;;;;;;10.85;6.10;;;11.00;80.10;;;;;;4906852;29;20044;-89
2022/09/23 04:03:03;;;;;;;10.43;6.47;;;11.00;80.30;;;;;;4916662;29;20031;-89
2022/09/23 04:05:35;;;;;;;10.32;6.53;;;11.00;80.30;;;;;;4926352;29;20169;-88
2022/09/23 04:08:01;;;;;;;10.93;6.97;;;11.00;80.20;;;;;;4915456;29;20098;-89
2022/09/23 04:10:26;;;;;;;11.48;7.55;;;11.00;80.20;;;;;;4924368;29;20061;-89
2022/09/23 04:12:52;;;;;;;10.48;6.40;;;10.90;80.30;;;;;;4911421;29;20484;-89
2022/09/23 04:15:18;;;;;;;13.25;6.93;;;10.90;80.40;;;;;;4920877;29;20024;-89
2022/09/23 04:17:44;;;;;;;15.30;7.47;;;10.90;80.40;;;;;;4925343;29;20036;-89
2022/09/23 04:20:09;;;;;;;11.80;7.72;;;10.90;80.50;;;;;;4903282;29;20092;-89
2022/09/23 04:22:36;;;;;;;11.77;7.88;;;10.90;80.40;;;;;;4926661;29;20092;-88
2022/09/23 04:25:03;;;;;;;13.35;8.18;;;10.90;80.30;;;;;;4923572;29;20040;-89
2022/09/23 04:27:28;;;;;;;12.80;8.38;;;10.90;80.20;;;;;;4900758;29;20033;-89
2022/09/23 04:29:54;;;;;;;13.52;7.70;;;10.90;80.10;;;;;;4904928;29;20044;-89
2022/09/23 04:32:20;;;;;;;15.60;8.52;;;10.90;79.70;;;;;;4903206;29;20051;-88
2022/09/23 04:34:45;;;;;;;14.57;7.65;;;10.90;79.60;;;;;;4911934;29;20041;-89
2022/09/23 04:37:11;;;;;;;12.48;7.47;;;11.00;79.50;;;;;;4903456;29;20041;-89
2022/09/23 04:39:36;;;;;;;13.80;8.40;;;11.00;79.40;;;;;;4902804;29;20223;-88
2022/09/23 04:42:03;;;;;;;12.88;7.72;;;11.10;79.40;;;;;;4915985;29;20046;-89
2022/09/23 04:44:28;;;;;;;12.85;7.80;;;11.10;79.50;;;;;;4901333;29;20495;-89
2022/09/23 04:46:54;;;;;;;15.07;7.60;;;11.10;79.60;;;;;;4898677;29;20066;-88
2022/09/23 04:49:20;;;;;;;14.73;8.65;;;11.10;79.60;;;;;;4898477;29;20066;-89
2022/09/23 04:51:46;;;;;;;13.60;9.05;;;11.10;79.80;;;;;;4914929;29;20068;-89
2022/09/23 04:54:13;;;;;;;12.48;8.60;;;11.10;79.80;;;;;;4908799;29;20055;-89
2022/09/23 04:56:39;;;;;;;13.07;9.05;;;11.10;79.90;;;;;;4926908;29;20036;-89
2022/09/23 04:59:05;;;;;;;14.82;9.38;;;11.10;79.90;;;;;;4923971;29;20024;-89
2022/09/23 05:01:33;;;;;;;15.05;9.57;;;11.10;79.90;;;;;;4908871;29;20677;-88
2022/09/23 05:04:01;;;;;;;13.88;9.38;;;11.10;79.50;;;;;;4897366;29;20347;-89
2022/09/23 05:06:33;;;;;;;14.85;9.18;;;11.10;79.50;;;;;;4908966;29;20055;-89
2022/09/23 05:08:59;;;;;;;15.95;9.82;;;11.10;79.50;;;;;;4927262;29;20059;-89
2022/09/23 05:11:27;;;;;;;16.73;9.02;;;11.10;79.30;;;;;;4907533;29;20055;-90
2022/09/23 05:13:53;;;;;;;14.23;9.75;;;11.20;79.30;;;;;;4916603;29;20185;-88
2022/09/23 05:16:21;;;;;;;14.43;9.18;;;11.10;79.20;;;;;;4902701;29;20036;-89
2022/09/23 05:18:49;;;;;;;16.58;9.43;;;11.10;79.40;;;;;;4898281;29;20031;-89
2022/09/23 05:21:26;;;;;;;16.35;9.73;;;11.20;79.30;;;;;;4909288;29;20516;-89
2022/09/23 05:23:54;;;;;;;16.83;10.63;;;11.20;79.30;;;;;;4899302;29;20107;-89
2022/09/23 05:26:21;;;;;;;17.45;10.45;;;11.20;79.20;;;;;;4914499;29;20067;-88
2022/09/23 05:28:47;;;;;;;14.57;9.57;;;11.30;79.20;;;;;;4904877;29;20451;-88
2022/09/23 05:31:21;;;;;;;15.02;9.07;;;11.30;79.10;;;;;;4906606;29;20040;-88
2022/09/23 05:37:03;;;;;;;18.65;10.40;;;11.20;79.30;;;;;;4881586;29;20473;-88
2022/09/23 05:39:28;;;;;;;15.95;10.30;;;11.30;79.20;;;;;;4922199;29;20090;-88
2022/09/23 05:41:54;;;;;;;15.38;9.20;;;11.30;79.20;;;;;;4906924;29;20032;-89
2022/09/23 05:44:20;;;;;;;13.23;9.10;;;11.30;79.10;;;;;;4917182;29;20032;-89
2022/09/23 05:46:46;;;;;;;14.00;9.43;;;11.30;79.10;;;;;;4919640;29;20404;-88
2022/09/23 05:49:12;;;;;;;16.65;9.80;;;11.30;79.10;;;;;;4906932;29;20039;-89
2022/09/23 05:51:38;;;;;;;15.50;9.98;;;11.30;79.00;;;;;;4906548;29;20456;-89
2022/09/23 05:54:04;;;;;;;14.25;8.98;;;11.30;78.90;;;;;;4908910;29;20025;-89
2022/09/23 05:56:31;;;;;;;14.68;9.77;;;11.40;78.70;;;;;;4911442;29;20473;-88
2022/09/23 05:58:59;;;;;;;16.55;9.27;;;11.50;78.80;;;;;;4911446;29;20388;-88
2022/09/23 06:01:27;;;;;;;14.27;9.65;;;11.50;78.40;;;;;;4893926;29;20067;-88
2022/09/23 06:03:55;;;;;;;16.05;10.23;;;11.50;78.50;;;;;;4893058;29;20041;-89
2022/09/23 06:06:29;;;;;;;16.05;8.80;;;11.50;78.30;;;;;;4895107;29;22730;-88
2022/09/23 06:08:56;;;;;;;17.00;9.25;;;11.60;78.10;;;;;;4890795;29;20047;-88
2022/09/23 06:11:22;;;;;;;17.63;10.05;;;11.60;77.90;;;;;;4908921;29;20048;-88
2022/09/23 06:13:49;;;;;;;16.10;9.27;;;11.60;77.90;;;;;;4892976;29;20072;-88
2022/09/23 06:16:15;;;;;;;14.15;9.35;;;11.60;77.80;;;;;;4895807;29;20636;-88
2022/09/23 06:22:28;;;;;;;16.33;8.75;;;11.70;77.30;;;;;;4855754;29;20041;-88
2022/09/23 06:24:54;;;;;;;23.58;10.32;;;11.80;77.40;;;;;;4897651;29;20056;-88
2022/09/23 06:27:20;;;;;;;15.52;8.75;;;11.80;77.10;;;;;;4918921;29;20054;-86
2022/09/23 06:29:45;;;;;;;18.58;9.40;;;11.90;77.10;;;;;;4925793;28;20043;-87
2022/09/23 06:32:11;;;;;;;18.17;9.13;;;11.90;77.20;;;;;;4917945;29;20215;-87
2022/09/23 06:34:37;;;;;;;15.55;9.55;;;11.90;77.00;;;;;;4906743;29;20108;-88
2022/09/23 06:37:02;;;;;;;15.23;9.32;;;12.00;76.90;;;;;;4892534;29;20472;-88
2022/09/23 06:39:28;;;;;;;13.15;8.60;;;12.00;76.90;;;;;;4892830;29;20752;-88
2022/09/23 06:41:54;;;;;;;16.45;9.13;;;12.10;76.90;;;;;;4897443;29;20071;-89
2022/09/23 06:44:20;;;;;;;17.70;9.25;;;12.10;76.70;;;;;;4899483;29;20127;-88
2022/09/23 06:46:45;;;;;;;13.48;8.80;;;12.10;76.40;;;;;;4914880;29;20032;-88
2022/09/23 06:49:12;;;;;;;16.25;9.02;;;12.20;76.40;;;;;;4903369;29;20689;-89
2022/09/23 06:51:38;;;;;;;22.00;9.23;;;12.20;76.10;;;;;;4901696;29;20044;-88
2022/09/23 06:54:03;;;;;;;14.88;8.80;;;12.40;76.10;;;;;;4902407;29;20071;-88
2022/09/23 06:56:29;;;;;;;14.57;8.85;;;12.40;75.60;;;;;;4916992;29;20036;-89
2022/09/23 06:58:55;;;;;;;16.67;8.18;;;12.50;75.60;;;;;;4904849;29;20047;-88
2022/09/23 07:01:22;;;;;;;14.35;9.43;;;12.50;75.60;;;;;;4918254;29;20380;-89
2022/09/23 07:03:47;;;;;;;14.98;8.50;;;12.60;75.10;;;;;;4907073;29;20064;-91
2022/09/23 07:06:14;;;;;;;13.73;8.60;;;12.60;75.10;;;;;;4895007;29;20079;-90
2022/09/23 07:08:43;;;;;;;15.35;8.88;;;12.70;75.40;;;;;;4903141;29;20131;-89
2022/09/23 07:11:11;;;;;;;14.95;9.25;;;12.80;74.80;;;;;;4919420;29;20037;-89
2022/09/23 07:13:37;;;;;;;13.88;9.25;;;12.80;74.80;;;;;;4901964;29;20056;-90
2022/09/23 07:16:03;;;;;;;16.50;9.35;;;13.00;74.60;;;;;;4897599;29;20156;-89
2022/09/23 07:18:35;;;;;;;15.00;9.48;;;13.00;74.10;;;;;;4908993;29;20040;-88
2022/09/23 07:21:13;;;;;;;13.80;9.25;;;13.10;74.10;;;;;;4892339;29;20047;-89
2022/09/23 07:23:41;;;;;;;15.73;8.38;;;13.10;74.10;;;;;;4892337;29;20051;-89
2022/09/23 07:26:07;;;;;;;16.60;10.40;;;13.10;74.10;;;;;;4907813;29;20503;-88
2022/09/23 07:28:34;;;;;;;20.80;9.75;;;13.20;74.00;;;;;;4892197;29;20063;-89
2022/09/23 07:31:06;;;;;;;17.45;9.30;;;13.30;73.70;;;;;;4889615;29;20044;-90
2022/09/23 07:33:34;;;;;;;15.10;9.45;;;13.40;73.60;;;;;;4906426;29;20120;-89
2022/09/23 07:36:09;;;;;;;16.05;9.35;;;13.60;73.60;;;;;;4905336;29;20048;-88
2022/09/23 07:38:36;;;;;;;17.65;10.15;;;13.70;73.10;;;;;;4894003;29;20091;-89
2022/09/23 07:41:04;;;;;;;14.68;8.32;;;13.90;72.40;;;;;;4895501;29;20426;-89
2022/09/23 07:43:33;;;;;;;16.75;8.90;;;14.00;72.00;;;;;;4893930;29;20644;-88
2022/09/23 07:46:01;;;;;;;14.77;9.55;;;14.10;71.50;;;;;;4892678;29;20551;-89
2022/09/23 07:48:28;;;;;;;16.40;8.98;;;14.20;71.00;;;;;;4906788;29;20040;-88
2022/09/23 07:50:55;;;;;;;18.02;9.40;;;14.20;71.60;;;;;;4891268;29;20053;-89
2022/09/23 07:53:22;;;;;;;15.93;8.52;;;14.30;71.00;;;;;;4918367;29;20086;-89
2022/09/23 07:55:55;;;;;;;15.77;8.60;;;14.40;71.10;;;;;;4907802;29;20119;-89
2022/09/23 07:58:22;;;;;;;17.33;9.85;;;14.40;70.70;;;;;;4897955;29;21096;-88
2022/09/23 08:00:50;;;;;;;16.85;9.10;;;14.50;70.10;;;;;;4896971;29;20040;-89
2022/09/23 08:03:16;;;;;;;16.60;8.15;;;14.60;70.10;;;;;;4897843;29;20033;-89
2022/09/23 08:05:41;;;;;;;15.73;8.27;;;14.60;70.30;;;;;;4892894;29;20051;-90
2022/09/23 08:08:08;;;;;;;17.27;8.50;;;14.60;70.30;;;;;;4896006;29;20032;-88
2022/09/23 08:10:34;;;;;;;16.60;8.38;;;14.60;70.30;;;;;;4903792;29;20024;-89
2022/09/23 08:13:02;;;;;;;15.15;8.98;;;14.60;70.40;;;;;;4913632;29;20067;-89
2022/09/23 08:15:30;;;;;;;14.77;8.30;;;14.60;69.80;;;;;;4899735;29;20028;-88
2022/09/23 08:17:59;;;;;;;14.27;7.97;;;14.70;70.00;;;;;;4908049;29;20063;-89
2022/09/23 08:20:44;;;;;;;17.45;9.15;;;14.80;70.40;;;;;;4899535;29;20496;-89
2022/09/23 08:23:13;;;;;;;19.58;9.35;;;14.90;69.80;;;;;;4907003;29;20036;-88
2022/09/23 08:25:40;;;;;;;18.85;8.95;;;14.80;69.70;;;;;;4895125;29;20472;-88
2022/09/23 08:28:07;;;;;;;16.45;9.18;;;14.80;69.50;;;;;;4889595;29;20047;-89
2022/09/23 08:30:33;;;;;;;20.85;9.15;;;14.90;69.30;;;;;;4905868;29;20041;-89
2022/09/23 08:32:59;;;;;;;19.38;9.70;;;14.90;69.20;;;;;;4894229;29;20052;-88
2022/09/23 08:35:25;;;;;;;17.95;9.52;;;14.90;69.50;;;;;;4910885;29;20040;-89
2022/09/23 08:37:51;;;;;;;18.83;10.10;;;15.00;69.90;;;;;;4897668;29;20032;-89
2022/09/23 08:40:18;;;;;;;16.73;9.05;;;15.00;69.90;;;;;;4901004;29;20043;-88
2022/09/23 08:42:45;;;;;;;15.32;9.82;;;15.00;70.30;;;;;;4903720;29;20049;-89
2022/09/23 08:45:22;;;;;;;19.70;10.05;;;15.10;70.30;;;;;;4908862;29;20092;-89
2022/09/23 08:47:50;;;;;;;20.42;11.23;;;15.20;70.10;;;;;;4912616;29;20123;-90
2022/09/23 08:50:22;;;;;;;15.93;10.55;;;15.30;69.90;;;;;;4909136;29;20203;-89
2022/09/23 08:53:01;;;;;;;14.68;9.75;;;15.30;69.50;;;;;;4900032;29;20055;-89
2022/09/23 08:55:36;;;;;;;18.48;10.05;;;15.30;69.10;;;;;;4909288;29;20067;-89
2022/09/23 08:58:20;;;;;;;16.67;8.57;;;15.50;68.50;;;;;;4909585;29;20496;-90
2022/09/23 09:01:09;;;;;;;16.75;10.18;;;15.50;69.20;;;;;;4894320;29;20593;-89
2022/09/23 09:03:41;;;;;;;14.43;9.35;;;15.70;69.60;;;;;;4901072;29;20119;-89
2022/09/23 09:06:16;;;;;;;16.05;10.50;;;15.70;68.60;;;;;;4911358;29;20068;-89
2022/09/23 09:08:45;;;;;;;15.80;9.43;;;15.80;68.20;;;;;;4902598;29;20032;-90
2022/09/23 09:11:13;;;;;;;16.70;10.60;;;16.00;68.20;;;;;;4895470;29;20092;-89
2022/09/23 09:13:59;;;;;;;13.45;9.45;;;16.10;67.30;;;;;;4908857;29;20573;-90
2022/09/23 09:16:43;;;;;;;16.83;9.77;;;16.10;67.70;;;;;;4893899;29;20060;-88
2022/09/23 09:19:20;;;;;;;13.40;8.37;;;16.10;67.60;;;;;;4899632;29;20043;-88
2022/09/23 09:21:52;;;;;;;18.00;8.60;;;16.30;67.50;;;;;;4902827;29;20048;-89
2022/09/23 09:24:30;;;;;;;18.15;8.57;;;16.50;66.60;;;;;;4891277;29;20036;-89
2022/09/23 09:26:56;;;;;;;15.90;8.80;;;16.50;66.60;;;;;;4915074;29;20040;-89
2022/09/23 09:29:31;;;;;;;15.77;9.13;;;16.60;66.60;;;;;;4900281;29;20533;-89
2022/09/23 09:31:58;;;;;;;17.55;9.75;;;16.60;66.30;;;;;;4908305;29;20488;-90
2022/09/23 09:34:40;;;;;;;20.38;9.65;;;16.80;66.10;;;;;;4905174;29;20044;-90
2022/09/23 09:37:29;;;;;;;22.73;9.27;;;16.70;66.30;;;;;;4927420;29;20111;-90
2022/09/23 09:39:55;;;;;;;18.67;10.43;;;16.80;65.80;;;;;;4914375;29;20051;-90
2022/09/23 09:42:38;;;;;;;14.80;9.05;;;16.90;65.70;;;;;;4910626;29;20406;-89
2022/09/23 09:45:13;;;;;;;16.67;9.23;;;17.00;66.10;;;;;;4910410;29;20119;-88
2022/09/23 09:47:55;;;;;;;17.33;8.38;;;17.10;65.40;;;;;;4933816;29;20074;-89
2022/09/23 09:50:42;;;;;;;18.77;9.27;;;17.30;64.80;;;;;;4914263;28;20123;-90
2022/09/23 09:53:25;;;;;;;18.55;9.40;;;17.50;64.40;;;;;;4907222;29;20139;-89
2022/09/23 09:56:00;;;;;;;15.18;9.20;;;17.60;63.80;;;;;;4919707;29;20041;-90
2022/09/23 09:58:50;;;;;;;17.02;8.65;;;17.90;64.00;;;;;;4905751;29;20044;-91
2022/09/23 10:01:33;;;;;;;12.75;7.93;;;18.10;63.20;;;;;;4897158;29;21219;-90
2022/09/23 10:04:20;;;;;;;15.48;8.50;;;18.40;61.70;;;;;;4926039;29;20305;-90
2022/09/23 10:07:14;;;;;;;12.70;8.20;;;18.60;62.20;;;;;;4909594;29;20070;-90
2022/09/23 10:09:48;;;;;;;17.33;8.25;;;18.90;61.90;;;;;;4910725;29;20041;-90
2022/09/23 10:12:17;;;;;;;18.00;8.18;;;19.10;60.40;;;;;;4898474;29;20053;-91
2022/09/23 10:14:44;;;;;;;14.85;8.90;;;19.40;59.80;;;;;;4908065;29;20506;-91
2022/09/23 10:17:38;;;;;;;15.68;8.50;;;19.60;59.60;;;;;;4900193;29;20081;-90
2022/09/23 10:20:08;;;;;;;15.18;8.82;;;19.80;58.50;;;;;;4903681;29;20036;-91
2022/09/23 10:22:41;;;;;;;17.15;9.02;;;19.80;57.60;;;;;;4910686;29;20447;-90
2022/09/23 10:25:23;;;;;;;19.58;8.50;;;19.70;58.10;;;;;;4897036;29;20044;-92
2022/09/23 10:27:49;;;;;;;15.27;7.72;;;19.70;58.70;;;;;;4916698;29;20040;-90
2022/09/23 10:30:22;;;;;;;17.75;8.95;;;19.70;58.50;;;;;;4903558;29;20040;-89
2022/09/23 10:32:49;;;;;;;16.08;7.95;;;19.90;58.30;;;;;;4924950;29;20392;-90
2022/09/23 10:35:20;;;;;;;15.43;8.70;;;19.80;58.20;;;;;;4919090;29;20039;-90
2022/09/23 10:37:53;;;;;;;16.13;8.77;;;19.90;58.80;;;;;;4924678;29;20052;-89
2022/09/23 10:46:43;;;;;;;16.33;8.85;;;19.90;58.60;;;;;;4899884;29;20044;-90
2022/09/23 10:49:34;;;;;;;16.13;9.15;;;20.00;58.50;;;;;;4905055;29;20040;-89
2022/09/23 10:52:37;;;;;;;16.67;9.73;;;20.00;59.50;;;;;;4917025;29;20150;-90
2022/09/23 10:55:28;;;;;;;15.10;9.63;;;20.00;59.30;;;;;;4908117;29;20123;-90
2022/09/23 10:58:12;;;;;;;14.27;9.25;;;20.00;60.00;;;;;;4916147;29;20139;-89
2022/09/23 11:07:39;;;;;;;13.95;8.98;;;19.90;60.40;;;;;;4838424;29;20307;-89
2022/09/23 11:10:37;;;;;;;16.58;9.80;;;19.80;60.60;;;;;;4907957;29;20029;-91
2022/09/23 11:13:17;;;;;;;17.33;9.52;;;19.80;60.20;;;;;;4929280;29;20143;-89
2022/09/23 11:16:07;;;;;;;14.93;9.77;;;19.80;60.40;;;;;;4927043;28;20036;-90
2022/09/23 11:19:22;;;;;;;15.85;9.95;;;19.80;61.30;;;;;;4902449;29;20044;-91
2022/09/23 11:22:08;;;;;;;18.83;10.77;;;19.80;61.50;;;;;;4863015;29;20055;-91
2022/09/23 11:25:15;;;;;;;14.45;10.15;;;19.80;61.00;;;;;;4862696;29;20033;-91
2022/09/23 11:28:03;;;;;;;16.02;10.65;;;19.70;61.10;;;;;;4867322;29;20037;-91
2022/09/23 11:31:44;;;;;;;;;;;;;;;;;;;;;
2022/09/23 11:37:22;;;;;;;16.33;10.60;;;19.90;61.30;;;;;;4903110;29;20406;-92
2022/09/23 11:39:58;;;;;;;13.93;10.23;;;19.80;61.70;;;;;;4914431;29;20047;-91
2022/09/23 11:42:35;;;;;;;13.65;10.00;;;19.90;60.90;;;;;;4915988;29;20032;-91
2022/09/23 11:45:18;;;;;;;15.25;10.50;;;19.80;62.10;;;;;;4914365;29;20048;-91
2022/09/23 11:47:59;;;;;;;18.42;10.73;;;19.80;61.50;;;;;;4914857;29;20613;-91
2022/09/23 11:50:35;;;;;;;17.02;10.93;;;19.80;62.20;;;;;;4911944;29;20033;-90
2022/09/23 11:53:23;;;;;;;13.38;9.57;;;19.90;61.50;;;;;;4931027;29;20650;-89
2022/09/23 11:56:14;;;;;;;16.35;10.45;;;20.00;61.80;;;;;;4912799;29;20496;-90
2022/09/23 11:58:57;;;;;;;18.35;11.02;;;19.80;61.20;;;;;;4924794;29;20047;-89
2022/09/23 12:01:34;;;;;;;15.80;9.68;;;19.80;61.10;;;;;;4913745;29;20183;-89
2022/09/23 12:04:18;;;;;;;14.32;10.10;;;19.80;62.10;;;;;;4927106;29;20200;-89
2022/09/23 12:06:55;;;;;;;17.65;9.88;;;19.90;61.80;;;;;;4926666;29;20068;-91
2022/09/23 12:09:31;;;;;;;15.88;10.80;;;20.00;61.60;;;;;;4913982;29;20193;-90
2022/09/23 12:12:20;;;;;;;16.05;10.75;;;20.00;61.50;;;;;;4914445;29;20515;-90
2022/09/23 12:15:20;;;;;;;16.95;10.57;;;20.10;61.20;;;;;;4915589;29;20079;-91
2022/09/23 12:18:01;;;;;;;13.70;9.85;;;20.10;61.80;;;;;;4934415;29;20127;-88
2022/09/23 12:21:11;;;;;;;13.52;9.82;;;20.10;60.90;;;;;;4919069;29;20043;-90
2022/09/23 12:24:14;;;;;;;18.20;9.90;;;20.10;61.20;;;;;;4918196;29;20054;-90
2022/09/23 12:26:43;;;;;;;15.38;9.30;;;20.10;61.40;;;;;;4921721;29;20504;-90
2022/09/23 12:29:12;;;;;;;13.88;9.90;;;20.00;61.90;;;;;;4922486;29;20060;-90
2022/09/23 12:31:38;;;;;;;17.58;10.30;;;20.00;62.10;;;;;;4916473;29;20047;-90
2022/09/23 12:34:33;;;;;;;15.05;9.82;;;20.00;63.00;;;;;;4912591;29;20046;-91
2022/09/23 12:37:05;;;;;;;15.63;10.18;;;20.10;62.10;;;;;;4914008;29;20196;-90
2022/09/23 12:39:37;;;;;;;15.23;10.73;;;20.10;62.50;;;;;;4928364;29;20135;-90
2022/09/23 12:42:19;;;;;;;14.95;10.50;;;20.00;63.40;;;;;;4918039;29;20047;-89
2022/09/23 12:44:47;;;;;;;17.35;10.60;;;20.00;62.70;;;;;;4906736;29;20032;-90
2022/09/23 12:47:19;;;;;;;17.55;10.63;;;20.10;62.70;;;;;;4911459;29;20122;-90
2022/09/23 12:49:46;;;;;;;15.15;9.98;;;20.00;63.30;;;;;;4924294;29;20127;-90
2022/09/23 12:52:23;;;;;;;16.20;9.90;;;20.10;63.10;;;;;;4908979;29;20048;-91
2022/09/23 12:54:50;;;;;;;17.33;10.55;;;20.20;62.80;;;;;;4921689;29;20037;-91
2022/09/23 12:57:34;;;;;;;15.13;10.43;;;20.30;62.70;;;;;;4910933;29;20051;-91
2022/09/23 13:00:12;;;;;;;14.55;8.82;;;20.30;63.80;;;;;;4920935;29;20088;-89
2022/09/23 13:08:46;;;;;;;15.23;10.10;;;20.30;63.90;;;;;;4935709;29;20046;-89
2022/09/23 13:11:32;;;;;;;13.20;9.57;;;20.20;64.30;;;;;;4926611;29;20172;-89
2022/09/23 13:14:00;;;;;;;12.85;9.50;;;20.30;64.50;;;;;;4922609;29;20043;-90
2022/09/23 13:16:31;;;;;;;14.88;9.23;;;20.20;64.90;;;;;;4921574;29;20093;-90
2022/09/23 13:18:59;;;;;;;15.38;9.95;;;20.30;65.00;;;;;;4908069;29;20119;-90
2022/09/23 13:21:43;;;;;;;14.35;9.35;;;20.20;64.30;;;;;;4909517;29;20051;-90
2022/09/23 13:24:12;;;;;;;14.90;9.40;;;20.10;64.60;;;;;;4901804;29;20147;-90
2022/09/23 13:26:56;;;;;;;15.05;10.38;;;20.20;64.00;;;;;;4910213;29;20051;-89
2022/09/23 13:29:52;;;;;;;15.77;9.48;;;20.20;65.40;;;;;;4911340;29;20401;-90
2022/09/23 13:32:20;;;;;;;13.77;9.88;;;20.40;64.60;;;;;;4906320;29;20635;-90
2022/09/23 13:35:02;;;;;;;17.25;11.18;;;20.40;64.20;;;;;;4928601;29;20466;-90
2022/09/23 13:37:48;;;;;;;15.07;10.43;;;20.30;64.30;;;;;;4928056;29;20688;-90
2022/09/23 13:40:23;;;;;;;17.38;11.00;;;20.20;65.00;;;;;;4910242;29;20421;-90
2022/09/23 13:42:56;;;;;;;;;;;20.10;64.70;;;;;;4913196;29;20044;-92
2022/09/23 13:45:24;;;;;;;12.82;9.98;;;20.10;64.30;;;;;;4910369;29;20382;-90